sensor_id;sensor_type;location;lat;lon;timestamp;P1;durP1;ratioP1;P2;durP2;ratioP2
25509;SDS011;13413;52.336;21.200;2023-02-21T00:01:28;3.10;;;1.60;;
25509;SDS011;13413;52.336;21.200;2023-02-21T00:04:24;6.00;;;2.40;;
25509;SDS011;13413;52.336;21.200;2023-02-21T00:07:18;27.60;;;10.60;;
25509;SDS011;13413;52.336;21.200;2023-02-21T00:13:06;9.80;;;3.90;;
25509;SDS011;13413;52.336;21.200;2023-02-21T00:16:00;2.80;;;1.40;;
25509;SDS011;13413;52.336;21.200;2023-02-21T00:18:54;20.90;;;9.20;;
25509;SDS011;13413;52.336;21.200;2023-02-21T00:21:48;3.40;;;2.10;;
25509;SDS011;13413;52.336;21.200;2023-02-21T00:24:42;18.70;;;9.50;;
25509;SDS011;13413;52.336;21.200;2023-02-21T00:27:36;3.80;;;2.10;;
25509;SDS011;13413;52.336;21.200;2023-02-21T00:30:30;15.70;;;9.60;;
25509;SDS011;13413;52.336;21.200;2023-02-21T00:33:24;3.80;;;2.60;;
25509;SDS011;13413;52.336;21.200;2023-02-21T00:36:18;7.00;;;3.50;;
25509;SDS011;13413;52.336;21.200;2023-02-21T00:39:12;6.10;;;3.60;;
25509;SDS011;13413;52.336;21.200;2023-02-21T00:42:06;4.80;;;2.30;;
25509;SDS011;13413;52.336;21.200;2023-02-21T00:45:00;6.30;;;2.20;;
25509;SDS011;13413;52.336;21.200;2023-02-21T00:47:54;12.40;;;4.70;;
25509;SDS011;13413;52.336;21.200;2023-02-21T00:50:48;6.30;;;3.30;;
25509;SDS011;13413;52.336;21.200;2023-02-21T00:53:42;4.20;;;2.10;;
25509;SDS011;13413;52.336;21.200;2023-02-21T00:56:36;9.30;;;4.50;;
25509;SDS011;13413;52.336;21.200;2023-02-21T00:59:30;7.10;;;4.00;;
25509;SDS011;13413;52.336;21.200;2023-02-21T01:02:24;6.50;;;3.50;;
25509;SDS011;13413;52.336;21.200;2023-02-21T01:05:18;10.10;;;4.60;;
25509;SDS011;13413;52.336;21.200;2023-02-21T01:08:12;6.70;;;3.50;;
25509;SDS011;13413;52.336;21.200;2023-02-21T01:11:06;4.30;;;2.60;;
25509;SDS011;13413;52.336;21.200;2023-02-21T01:14:04;3.30;;;2.70;;
25509;SDS011;13413;52.336;21.200;2023-02-21T01:16:59;6.00;;;3.80;;
25509;SDS011;13413;52.336;21.200;2023-02-21T01:19:53;10.90;;;5.90;;
25509;SDS011;13413;52.336;21.200;2023-02-21T01:22:47;6.70;;;3.30;;
25509;SDS011;13413;52.336;21.200;2023-02-21T01:25:41;7.70;;;4.40;;
25509;SDS011;13413;52.336;21.200;2023-02-21T01:28:35;3.20;;;2.60;;
25509;SDS011;13413;52.336;21.200;2023-02-21T01:31:29;4.30;;;3.00;;
25509;SDS011;13413;52.336;21.200;2023-02-21T01:34:23;4.60;;;2.30;;
25509;SDS011;13413;52.336;21.200;2023-02-21T01:37:17;5.20;;;3.20;;
25509;SDS011;13413;52.336;21.200;2023-02-21T01:40:14;9.70;;;3.20;;
25509;SDS011;13413;52.336;21.200;2023-02-21T01:43:13;6.60;;;2.40;;
25509;SDS011;13413;52.336;21.200;2023-02-21T01:46:10;5.70;;;2.30;;
25509;SDS011;13413;52.336;21.200;2023-02-21T01:49:08;7.80;;;3.30;;
25509;SDS011;13413;52.336;21.200;2023-02-21T01:52:04;7.40;;;3.70;;
25509;SDS011;13413;52.336;21.200;2023-02-21T01:54:58;9.20;;;4.10;;
25509;SDS011;13413;52.336;21.200;2023-02-21T02:00:46;8.80;;;3.30;;
25509;SDS011;13413;52.336;21.200;2023-02-21T02:03:40;7.00;;;2.50;;
25509;SDS011;13413;52.336;21.200;2023-02-21T02:06:34;5.60;;;2.40;;
25509;SDS011;13413;52.336;21.200;2023-02-21T02:09:28;9.00;;;2.80;;
25509;SDS011;13413;52.336;21.200;2023-02-21T02:12:28;10.40;;;2.80;;
25509;SDS011;13413;52.336;21.200;2023-02-21T02:22:42;5.80;;;2.10;;
25509;SDS011;13413;52.336;21.200;2023-02-21T02:26:04;6.50;;;2.40;;
25509;SDS011;13413;52.336;21.200;2023-02-21T02:29:18;3.40;;;1.40;;
25509;SDS011;13413;52.336;21.200;2023-02-21T02:32:34;8.40;;;2.70;;
25509;SDS011;13413;52.336;21.200;2023-02-21T02:35:36;8.90;;;3.00;;
25509;SDS011;13413;52.336;21.200;2023-02-21T02:38:35;6.20;;;1.90;;
25509;SDS011;13413;52.336;21.200;2023-02-21T02:41:40;11.30;;;2.50;;
25509;SDS011;13413;52.336;21.200;2023-02-21T02:44:41;10.00;;;2.60;;
25509;SDS011;13413;52.336;21.200;2023-02-21T02:47:44;6.50;;;2.00;;
25509;SDS011;13413;52.336;21.200;2023-02-21T02:50:43;10.70;;;2.20;;
25509;SDS011;13413;52.336;21.200;2023-02-21T02:53:39;8.60;;;2.70;;
25509;SDS011;13413;52.336;21.200;2023-02-21T02:56:33;13.60;;;3.30;;
25509;SDS011;13413;52.336;21.200;2023-02-21T02:59:27;10.20;;;2.30;;
25509;SDS011;13413;52.336;21.200;2023-02-21T03:05:48;11.80;;;3.10;;
25509;SDS011;13413;52.336;21.200;2023-02-21T03:08:55;12.10;;;3.20;;
25509;SDS011;13413;52.336;21.200;2023-02-21T03:11:58;12.30;;;2.60;;
25509;SDS011;13413;52.336;21.200;2023-02-21T03:15:02;8.70;;;2.90;;
25509;SDS011;13413;52.336;21.200;2023-02-21T03:18:00;14.70;;;2.90;;
25509;SDS011;13413;52.336;21.200;2023-02-21T03:21:00;9.00;;;2.60;;
25509;SDS011;13413;52.336;21.200;2023-02-21T03:23:56;11.40;;;2.50;;
25509;SDS011;13413;52.336;21.200;2023-02-21T03:26:52;7.40;;;2.40;;
25509;SDS011;13413;52.336;21.200;2023-02-21T03:29:52;11.30;;;3.20;;
25509;SDS011;13413;52.336;21.200;2023-02-21T03:32:49;10.70;;;2.90;;
25509;SDS011;13413;52.336;21.200;2023-02-21T03:35:44;7.60;;;2.90;;
25509;SDS011;13413;52.336;21.200;2023-02-21T03:38:38;7.40;;;2.50;;
25509;SDS011;13413;52.336;21.200;2023-02-21T03:41:32;6.40;;;2.90;;
25509;SDS011;13413;52.336;21.200;2023-02-21T03:44:26;6.20;;;2.10;;
25509;SDS011;13413;52.336;21.200;2023-02-21T03:47:20;8.50;;;2.20;;
25509;SDS011;13413;52.336;21.200;2023-02-21T03:50:14;12.80;;;3.20;;
25509;SDS011;13413;52.336;21.200;2023-02-21T03:53:09;9.10;;;3.30;;
25509;SDS011;13413;52.336;21.200;2023-02-21T03:56:05;6.30;;;2.10;;
25509;SDS011;13413;52.336;21.200;2023-02-21T03:58:59;10.10;;;3.00;;
25509;SDS011;13413;52.336;21.200;2023-02-21T04:01:53;10.60;;;2.70;;
25509;SDS011;13413;52.336;21.200;2023-02-21T04:04:47;10.70;;;2.80;;
25509;SDS011;13413;52.336;21.200;2023-02-21T04:07:41;21.90;;;6.30;;
25509;SDS011;13413;52.336;21.200;2023-02-21T04:10:35;6.60;;;2.60;;
25509;SDS011;13413;52.336;21.200;2023-02-21T04:13:29;9.40;;;3.80;;
25509;SDS011;13413;52.336;21.200;2023-02-21T04:16:23;13.60;;;4.00;;
25509;SDS011;13413;52.336;21.200;2023-02-21T04:19:18;6.10;;;2.10;;
25509;SDS011;13413;52.336;21.200;2023-02-21T04:22:11;9.80;;;2.10;;
25509;SDS011;13413;52.336;21.200;2023-02-21T04:25:06;8.80;;;2.20;;
25509;SDS011;13413;52.336;21.200;2023-02-21T04:28:04;10.60;;;2.10;;
25509;SDS011;13413;52.336;21.200;2023-02-21T04:30:58;7.40;;;2.60;;
25509;SDS011;13413;52.336;21.200;2023-02-21T04:45:07;12.90;;;3.10;;
25509;SDS011;13413;52.336;21.200;2023-02-21T04:48:01;14.60;;;3.00;;
25509;SDS011;13413;52.336;21.200;2023-02-21T04:50:55;19.60;;;3.70;;
25509;SDS011;13413;52.336;21.200;2023-02-21T04:53:49;26.40;;;6.90;;
25509;SDS011;13413;52.336;21.200;2023-02-21T04:56:44;17.90;;;4.10;;
25509;SDS011;13413;52.336;21.200;2023-02-21T04:59:38;9.70;;;3.00;;
25509;SDS011;13413;52.336;21.200;2023-02-21T05:02:32;23.40;;;5.10;;
25509;SDS011;13413;52.336;21.200;2023-02-21T05:08:19;12.80;;;2.50;;
25509;SDS011;13413;52.336;21.200;2023-02-21T05:11:13;22.10;;;4.50;;
25509;SDS011;13413;52.336;21.200;2023-02-21T05:14:07;17.00;;;4.20;;
25509;SDS011;13413;52.336;21.200;2023-02-21T05:17:01;24.30;;;6.60;;
25509;SDS011;13413;52.336;21.200;2023-02-21T05:19:55;27.10;;;12.30;;
25509;SDS011;13413;52.336;21.200;2023-02-21T05:22:49;13.50;;;4.60;;
25509;SDS011;13413;52.336;21.200;2023-02-21T05:25:43;17.80;;;5.70;;
25509;SDS011;13413;52.336;21.200;2023-02-21T05:28:37;10.20;;;4.00;;
25509;SDS011;13413;52.336;21.200;2023-02-21T05:31:32;17.10;;;5.80;;
25509;SDS011;13413;52.336;21.200;2023-02-21T05:34:26;17.90;;;6.70;;
25509;SDS011;13413;52.336;21.200;2023-02-21T05:37:20;16.60;;;7.30;;
25509;SDS011;13413;52.336;21.200;2023-02-21T05:40:15;22.80;;;8.10;;
25509;SDS011;13413;52.336;21.200;2023-02-21T05:43:10;12.50;;;4.20;;
25509;SDS011;13413;52.336;21.200;2023-02-21T05:46:05;20.40;;;6.50;;
25509;SDS011;13413;52.336;21.200;2023-02-21T05:48:59;17.10;;;6.30;;
25509;SDS011;13413;52.336;21.200;2023-02-21T05:51:55;16.40;;;4.00;;
25509;SDS011;13413;52.336;21.200;2023-02-21T05:54:49;16.10;;;5.00;;
25509;SDS011;13413;52.336;21.200;2023-02-21T05:57:43;13.00;;;3.70;;
25509;SDS011;13413;52.336;21.200;2023-02-21T06:00:37;18.90;;;4.90;;
25509;SDS011;13413;52.336;21.200;2023-02-21T06:03:31;12.90;;;4.10;;
25509;SDS011;13413;52.336;21.200;2023-02-21T06:09:21;15.40;;;6.00;;
25509;SDS011;13413;52.336;21.200;2023-02-21T06:12:15;14.90;;;5.20;;
25509;SDS011;13413;52.336;21.200;2023-02-21T06:15:09;17.40;;;4.70;;
25509;SDS011;13413;52.336;21.200;2023-02-21T06:18:03;18.70;;;5.80;;
25509;SDS011;13413;52.336;21.200;2023-02-21T06:20:57;22.70;;;6.60;;
25509;SDS011;13413;52.336;21.200;2023-02-21T06:23:51;14.70;;;6.40;;
25509;SDS011;13413;52.336;21.200;2023-02-21T06:26:45;21.00;;;11.90;;
25509;SDS011;13413;52.336;21.200;2023-02-21T06:29:39;17.70;;;5.60;;
25509;SDS011;13413;52.336;21.200;2023-02-21T06:32:33;18.10;;;4.20;;
25509;SDS011;13413;52.336;21.200;2023-02-21T06:35:27;88.00;;;58.20;;
25509;SDS011;13413;52.336;21.200;2023-02-21T06:38:21;42.70;;;25.00;;
25509;SDS011;13413;52.336;21.200;2023-02-21T06:41:15;17.30;;;5.70;;
25509;SDS011;13413;52.336;21.200;2023-02-21T06:44:11;13.70;;;5.70;;
25509;SDS011;13413;52.336;21.200;2023-02-21T06:47:05;14.00;;;5.20;;
25509;SDS011;13413;52.336;21.200;2023-02-21T06:49:59;17.50;;;4.20;;
25509;SDS011;13413;52.336;21.200;2023-02-21T06:52:53;22.10;;;6.10;;
25509;SDS011;13413;52.336;21.200;2023-02-21T07:01:21;20.30;;;7.10;;
25509;SDS011;13413;52.336;21.200;2023-02-21T07:04:16;15.80;;;5.40;;
25509;SDS011;13413;52.336;21.200;2023-02-21T07:07:10;21.10;;;6.70;;
25509;SDS011;13413;52.336;21.200;2023-02-21T07:10:04;22.30;;;7.20;;
25509;SDS011;13413;52.336;21.200;2023-02-21T07:12:58;17.20;;;4.40;;
25509;SDS011;13413;52.336;21.200;2023-02-21T07:15:53;19.20;;;6.10;;
25509;SDS011;13413;52.336;21.200;2023-02-21T07:18:47;14.00;;;4.00;;
25509;SDS011;13413;52.336;21.200;2023-02-21T07:21:40;18.30;;;7.70;;
25509;SDS011;13413;52.336;21.200;2023-02-21T07:24:35;17.00;;;4.30;;
25509;SDS011;13413;52.336;21.200;2023-02-21T07:27:29;14.10;;;6.80;;
25509;SDS011;13413;52.336;21.200;2023-02-21T07:30:23;23.90;;;7.60;;
25509;SDS011;13413;52.336;21.200;2023-02-21T07:33:17;21.70;;;7.20;;
25509;SDS011;13413;52.336;21.200;2023-02-21T07:36:11;23.50;;;8.50;;
25509;SDS011;13413;52.336;21.200;2023-02-21T07:39:04;17.10;;;5.40;;
25509;SDS011;13413;52.336;21.200;2023-02-21T07:41:59;23.80;;;11.00;;
25509;SDS011;13413;52.336;21.200;2023-02-21T07:44:55;19.90;;;7.70;;
25509;SDS011;13413;52.336;21.200;2023-02-21T07:47:49;32.50;;;10.00;;
25509;SDS011;13413;52.336;21.200;2023-02-21T07:50:43;32.10;;;9.00;;
25509;SDS011;13413;52.336;21.200;2023-02-21T07:53:38;25.40;;;7.50;;
25509;SDS011;13413;52.336;21.200;2023-02-21T07:56:33;15.50;;;5.10;;
25509;SDS011;13413;52.336;21.200;2023-02-21T07:59:26;19.50;;;4.70;;
25509;SDS011;13413;52.336;21.200;2023-02-21T08:02:20;17.90;;;4.70;;
25509;SDS011;13413;52.336;21.200;2023-02-21T08:05:15;16.70;;;5.40;;
25509;SDS011;13413;52.336;21.200;2023-02-21T08:11:01;17.00;;;4.80;;
25509;SDS011;13413;52.336;21.200;2023-02-21T08:13:56;19.20;;;5.10;;
25509;SDS011;13413;52.336;21.200;2023-02-21T08:16:52;15.30;;;5.30;;
25509;SDS011;13413;52.336;21.200;2023-02-21T08:31:07;40.50;;;22.30;;
25509;SDS011;13413;52.336;21.200;2023-02-21T08:34:01;29.10;;;11.10;;
25509;SDS011;13413;52.336;21.200;2023-02-21T08:36:55;24.30;;;7.30;;
25509;SDS011;13413;52.336;21.200;2023-02-21T08:39:49;20.60;;;5.70;;
25509;SDS011;13413;52.336;21.200;2023-02-21T08:42:47;19.50;;;7.70;;
25509;SDS011;13413;52.336;21.200;2023-02-21T08:45:41;19.00;;;6.50;;
25509;SDS011;13413;52.336;21.200;2023-02-21T08:48:34;17.60;;;5.00;;
25509;SDS011;13413;52.336;21.200;2023-02-21T08:51:29;22.30;;;5.80;;
25509;SDS011;13413;52.336;21.200;2023-02-21T08:54:23;21.10;;;6.00;;
25509;SDS011;13413;52.336;21.200;2023-02-21T08:57:18;15.60;;;5.80;;
25509;SDS011;13413;52.336;21.200;2023-02-21T09:00:14;19.40;;;6.70;;
25509;SDS011;13413;52.336;21.200;2023-02-21T09:03:08;25.10;;;6.50;;
25509;SDS011;13413;52.336;21.200;2023-02-21T09:06:02;23.10;;;6.90;;
25509;SDS011;13413;52.336;21.200;2023-02-21T09:08:55;26.10;;;7.40;;
25509;SDS011;13413;52.336;21.200;2023-02-21T09:11:49;21.20;;;6.50;;
25509;SDS011;13413;52.336;21.200;2023-02-21T09:14:43;21.70;;;6.20;;
25509;SDS011;13413;52.336;21.200;2023-02-21T09:17:38;24.20;;;7.40;;
25509;SDS011;13413;52.336;21.200;2023-02-21T09:20:32;23.70;;;9.40;;
25509;SDS011;13413;52.336;21.200;2023-02-21T09:23:26;26.10;;;10.30;;
25509;SDS011;13413;52.336;21.200;2023-02-21T09:26:22;27.90;;;10.70;;
25509;SDS011;13413;52.336;21.200;2023-02-21T09:29:15;65.80;;;37.40;;
25509;SDS011;13413;52.336;21.200;2023-02-21T09:32:10;44.70;;;21.20;;
25509;SDS011;13413;52.336;21.200;2023-02-21T09:35:06;131.30;;;66.50;;
25509;SDS011;13413;52.336;21.200;2023-02-21T09:38:01;24.50;;;8.40;;
25509;SDS011;13413;52.336;21.200;2023-02-21T09:40:58;24.30;;;8.40;;
25509;SDS011;13413;52.336;21.200;2023-02-21T09:43:54;17.90;;;6.80;;
25509;SDS011;13413;52.336;21.200;2023-02-21T09:46:49;25.70;;;7.40;;
25509;SDS011;13413;52.336;21.200;2023-02-21T09:49:45;25.00;;;8.10;;
25509;SDS011;13413;52.336;21.200;2023-02-21T09:52:42;19.50;;;5.70;;
25509;SDS011;13413;52.336;21.200;2023-02-21T09:55:38;18.10;;;6.30;;
25509;SDS011;13413;52.336;21.200;2023-02-21T09:58:33;35.40;;;12.80;;
25509;SDS011;13413;52.336;21.200;2023-02-21T10:01:38;24.20;;;8.70;;
25509;SDS011;13413;52.336;21.200;2023-02-21T10:04:44;19.40;;;6.60;;
25509;SDS011;13413;52.336;21.200;2023-02-21T10:07:52;19.40;;;8.80;;
25509;SDS011;13413;52.336;21.200;2023-02-21T10:10:50;16.00;;;6.10;;
25509;SDS011;13413;52.336;21.200;2023-02-21T10:13:51;15.70;;;5.40;;
25509;SDS011;13413;52.336;21.200;2023-02-21T10:16:50;17.10;;;5.50;;
25509;SDS011;13413;52.336;21.200;2023-02-21T10:19:47;22.20;;;5.80;;
25509;SDS011;13413;52.336;21.200;2023-02-21T10:22:45;19.20;;;6.10;;
25509;SDS011;13413;52.336;21.200;2023-02-21T10:25:41;19.80;;;6.00;;
25509;SDS011;13413;52.336;21.200;2023-02-21T10:28:37;17.50;;;5.50;;
25509;SDS011;13413;52.336;21.200;2023-02-21T10:31:31;24.40;;;7.30;;
25509;SDS011;13413;52.336;21.200;2023-02-21T10:34:27;16.20;;;5.50;;
25509;SDS011;13413;52.336;21.200;2023-02-21T10:37:30;14.80;;;5.70;;
25509;SDS011;13413;52.336;21.200;2023-02-21T10:40:30;34.70;;;16.60;;
25509;SDS011;13413;52.336;21.200;2023-02-21T10:52:03;19.40;;;4.70;;
25509;SDS011;13413;52.336;21.200;2023-02-21T10:55:01;19.20;;;5.50;;
25509;SDS011;13413;52.336;21.200;2023-02-21T10:57:57;22.20;;;5.60;;
25509;SDS011;13413;52.336;21.200;2023-02-21T11:01:05;11.00;;;3.30;;
25509;SDS011;13413;52.336;21.200;2023-02-21T11:04:06;51.20;;;13.80;;
25509;SDS011;13413;52.336;21.200;2023-02-21T11:07:17;16.40;;;5.00;;
25509;SDS011;13413;52.336;21.200;2023-02-21T11:10:27;24.60;;;7.60;;
25509;SDS011;13413;52.336;21.200;2023-02-21T11:13:42;19.70;;;7.90;;
25509;SDS011;13413;52.336;21.200;2023-02-21T11:16:36;48.40;;;19.50;;
25509;SDS011;13413;52.336;21.200;2023-02-21T11:19:30;32.90;;;13.00;;
25509;SDS011;13413;52.336;21.200;2023-02-21T11:22:36;28.80;;;12.30;;
25509;SDS011;13413;52.336;21.200;2023-02-21T11:25:36;11.30;;;4.30;;
25509;SDS011;13413;52.336;21.200;2023-02-21T11:28:33;13.10;;;4.90;;
25509;SDS011;13413;52.336;21.200;2023-02-21T11:31:31;10.40;;;3.90;;
25509;SDS011;13413;52.336;21.200;2023-02-21T11:34:28;15.80;;;5.30;;
25509;SDS011;13413;52.336;21.200;2023-02-21T11:37:22;14.10;;;4.70;;
25509;SDS011;13413;52.336;21.200;2023-02-21T11:40:27;19.10;;;4.80;;
25509;SDS011;13413;52.336;21.200;2023-02-21T11:43:25;16.70;;;4.20;;
25509;SDS011;13413;52.336;21.200;2023-02-21T11:46:23;21.20;;;5.10;;
25509;SDS011;13413;52.336;21.200;2023-02-21T11:49:28;27.40;;;8.60;;
25509;SDS011;13413;52.336;21.200;2023-02-21T11:52:30;20.80;;;9.00;;
25509;SDS011;13413;52.336;21.200;2023-02-21T11:55:43;15.30;;;3.70;;
25509;SDS011;13413;52.336;21.200;2023-02-21T11:58:59;13.10;;;4.40;;
25509;SDS011;13413;52.336;21.200;2023-02-21T12:02:11;15.80;;;4.30;;
25509;SDS011;13413;52.336;21.200;2023-02-21T12:05:33;12.80;;;3.40;;
25509;SDS011;13413;52.336;21.200;2023-02-21T12:08:44;15.80;;;5.80;;
25509;SDS011;13413;52.336;21.200;2023-02-21T12:11:53;15.00;;;6.10;;
25509;SDS011;13413;52.336;21.200;2023-02-21T12:15:02;10.70;;;4.00;;
25509;SDS011;13413;52.336;21.200;2023-02-21T12:18:11;26.40;;;11.90;;
25509;SDS011;13413;52.336;21.200;2023-02-21T12:21:23;11.00;;;4.00;;
25509;SDS011;13413;52.336;21.200;2023-02-21T12:24:54;29.90;;;6.30;;
25509;SDS011;13413;52.336;21.200;2023-02-21T12:27:56;15.30;;;5.10;;
25509;SDS011;13413;52.336;21.200;2023-02-21T12:31:02;32.20;;;8.70;;
25509;SDS011;13413;52.336;21.200;2023-02-21T12:34:09;23.50;;;7.90;;
25509;SDS011;13413;52.336;21.200;2023-02-21T12:37:21;16.10;;;6.20;;
25509;SDS011;13413;52.336;21.200;2023-02-21T12:40:26;15.40;;;4.60;;
25509;SDS011;13413;52.336;21.200;2023-02-21T12:43:33;18.40;;;5.80;;
25509;SDS011;13413;52.336;21.200;2023-02-21T12:46:37;9.50;;;4.20;;
25509;SDS011;13413;52.336;21.200;2023-02-21T12:49:39;16.00;;;5.20;;
25509;SDS011;13413;52.336;21.200;2023-02-21T12:52:37;16.10;;;5.80;;
25509;SDS011;13413;52.336;21.200;2023-02-21T12:55:39;16.90;;;4.80;;
25509;SDS011;13413;52.336;21.200;2023-02-21T12:58:38;10.40;;;4.10;;
25509;SDS011;13413;52.336;21.200;2023-02-21T13:01:37;23.20;;;6.60;;
25509;SDS011;13413;52.336;21.200;2023-02-21T13:12:39;22.40;;;5.50;;
25509;SDS011;13413;52.336;21.200;2023-02-21T13:15:39;15.90;;;5.70;;
25509;SDS011;13413;52.336;21.200;2023-02-21T13:18:35;15.30;;;5.00;;
25509;SDS011;13413;52.336;21.200;2023-02-21T13:21:35;17.40;;;5.90;;
25509;SDS011;13413;52.336;21.200;2023-02-21T13:24:54;19.40;;;7.40;;
25509;SDS011;13413;52.336;21.200;2023-02-21T13:27:57;19.80;;;5.10;;
25509;SDS011;13413;52.336;21.200;2023-02-21T13:31:00;23.00;;;5.10;;
25509;SDS011;13413;52.336;21.200;2023-02-21T13:33:56;15.20;;;6.00;;
25509;SDS011;13413;52.336;21.200;2023-02-21T13:36:51;22.50;;;6.20;;
25509;SDS011;13413;52.336;21.200;2023-02-21T13:39:51;18.50;;;5.10;;
25509;SDS011;13413;52.336;21.200;2023-02-21T13:42:47;17.90;;;4.80;;
25509;SDS011;13413;52.336;21.200;2023-02-21T13:45:52;15.00;;;5.20;;
25509;SDS011;13413;52.336;21.200;2023-02-21T13:59:35;17.90;;;5.40;;
25509;SDS011;13413;52.336;21.200;2023-02-21T14:02:30;11.50;;;4.60;;
25509;SDS011;13413;52.336;21.200;2023-02-21T14:06:13;15.50;;;5.20;;
25509;SDS011;13413;52.336;21.200;2023-02-21T14:08:59;14.90;;;5.30;;
25509;SDS011;13413;52.336;21.200;2023-02-21T14:12:01;19.10;;;5.60;;
25509;SDS011;13413;52.336;21.200;2023-02-21T14:17:59;16.80;;;3.80;;
25509;SDS011;13413;52.336;21.200;2023-02-21T14:20:54;14.70;;;5.20;;
25509;SDS011;13413;52.336;21.200;2023-02-21T14:23:51;25.50;;;9.50;;
25509;SDS011;13413;52.336;21.200;2023-02-21T14:26:52;23.20;;;8.00;;
25509;SDS011;13413;52.336;21.200;2023-02-21T14:33:21;40.40;;;16.40;;
25509;SDS011;13413;52.336;21.200;2023-02-21T14:36:16;17.00;;;6.70;;
25509;SDS011;13413;52.336;21.200;2023-02-21T14:39:11;16.90;;;5.70;;
25509;SDS011;13413;52.336;21.200;2023-02-21T14:42:20;20.40;;;7.70;;
25509;SDS011;13413;52.336;21.200;2023-02-21T14:45:32;30.00;;;9.00;;
25509;SDS011;13413;52.336;21.200;2023-02-21T14:48:51;32.40;;;14.00;;
25509;SDS011;13413;52.336;21.200;2023-02-21T14:59:28;42.90;;;16.90;;
25509;SDS011;13413;52.336;21.200;2023-02-21T15:02:35;29.80;;;12.80;;
25509;SDS011;13413;52.336;21.200;2023-02-21T15:05:39;20.60;;;8.40;;
25509;SDS011;13413;52.336;21.200;2023-02-21T15:08:42;31.70;;;15.90;;
25509;SDS011;13413;52.336;21.200;2023-02-21T15:11:37;44.60;;;20.40;;
25509;SDS011;13413;52.336;21.200;2023-02-21T15:14:34;35.20;;;13.50;;
25509;SDS011;13413;52.336;21.200;2023-02-21T15:17:30;103.40;;;39.90;;
25509;SDS011;13413;52.336;21.200;2023-02-21T15:20:24;75.20;;;28.60;;
25509;SDS011;13413;52.336;21.200;2023-02-21T15:32:11;32.60;;;10.40;;
25509;SDS011;13413;52.336;21.200;2023-02-21T15:35:06;22.30;;;8.10;;
25509;SDS011;13413;52.336;21.200;2023-02-21T15:38:08;24.20;;;9.40;;
25509;SDS011;13413;52.336;21.200;2023-02-21T15:41:08;32.20;;;9.10;;
25509;SDS011;13413;52.336;21.200;2023-02-21T15:44:21;33.90;;;12.30;;
25509;SDS011;13413;52.336;21.200;2023-02-21T15:47:20;37.70;;;12.20;;
25509;SDS011;13413;52.336;21.200;2023-02-21T15:50:17;33.30;;;12.60;;
25509;SDS011;13413;52.336;21.200;2023-02-21T15:56:28;35.40;;;12.20;;
25509;SDS011;13413;52.336;21.200;2023-02-21T15:59:25;42.10;;;14.30;;
25509;SDS011;13413;52.336;21.200;2023-02-21T16:02:21;37.20;;;12.70;;
25509;SDS011;13413;52.336;21.200;2023-02-21T16:05:24;38.50;;;15.70;;
25509;SDS011;13413;52.336;21.200;2023-02-21T16:08:19;81.10;;;27.60;;
25509;SDS011;13413;52.336;21.200;2023-02-21T16:11:13;140.90;;;51.00;;
25509;SDS011;13413;52.336;21.200;2023-02-21T16:14:13;147.20;;;51.90;;
25509;SDS011;13413;52.336;21.200;2023-02-21T16:17:21;152.20;;;53.10;;
25509;SDS011;13413;52.336;21.200;2023-02-21T16:20:19;124.60;;;43.40;;
25509;SDS011;13413;52.336;21.200;2023-02-21T16:23:23;163.10;;;55.20;;
25509;SDS011;13413;52.336;21.200;2023-02-21T16:26:20;149.80;;;52.90;;
25509;SDS011;13413;52.336;21.200;2023-02-21T16:29:16;102.10;;;39.00;;
25509;SDS011;13413;52.336;21.200;2023-02-21T16:35:12;66.10;;;28.30;;
25509;SDS011;13413;52.336;21.200;2023-02-21T16:38:10;63.50;;;26.90;;
25509;SDS011;13413;52.336;21.200;2023-02-21T16:41:11;51.60;;;23.20;;
25509;SDS011;13413;52.336;21.200;2023-02-21T16:44:05;47.60;;;20.20;;
25509;SDS011;13413;52.336;21.200;2023-02-21T16:46:59;52.40;;;21.90;;
25509;SDS011;13413;52.336;21.200;2023-02-21T16:49:53;54.80;;;22.30;;
25509;SDS011;13413;52.336;21.200;2023-02-21T16:52:47;34.20;;;12.90;;
25509;SDS011;13413;52.336;21.200;2023-02-21T16:55:41;42.10;;;14.00;;
25509;SDS011;13413;52.336;21.200;2023-02-21T16:58:36;41.20;;;16.20;;
25509;SDS011;13413;52.336;21.200;2023-02-21T17:04:40;42.60;;;14.10;;
25509;SDS011;13413;52.336;21.200;2023-02-21T17:07:34;47.50;;;16.00;;
25509;SDS011;13413;52.336;21.200;2023-02-21T17:10:28;50.20;;;19.00;;
25509;SDS011;13413;52.336;21.200;2023-02-21T17:13:22;56.40;;;25.00;;
25509;SDS011;13413;52.336;21.200;2023-02-21T17:16:16;62.80;;;26.30;;
25509;SDS011;13413;52.336;21.200;2023-02-21T17:19:10;67.70;;;31.20;;
25509;SDS011;13413;52.336;21.200;2023-02-21T17:24:57;106.10;;;48.30;;
25509;SDS011;13413;52.336;21.200;2023-02-21T17:27:51;87.10;;;40.40;;
25509;SDS011;13413;52.336;21.200;2023-02-21T17:30:45;69.60;;;31.40;;
25509;SDS011;13413;52.336;21.200;2023-02-21T17:33:39;56.10;;;25.50;;
25509;SDS011;13413;52.336;21.200;2023-02-21T17:36:33;64.80;;;26.70;;
25509;SDS011;13413;52.336;21.200;2023-02-21T17:39:27;59.70;;;26.60;;
25509;SDS011;13413;52.336;21.200;2023-02-21T17:50:49;48.60;;;19.50;;
25509;SDS011;13413;52.336;21.200;2023-02-21T17:53:43;56.20;;;26.80;;
25509;SDS011;13413;52.336;21.200;2023-02-21T17:56:37;48.40;;;19.40;;
25509;SDS011;13413;52.336;21.200;2023-02-21T17:59:31;55.00;;;22.80;;
25509;SDS011;13413;52.336;21.200;2023-02-21T18:02:24;62.30;;;25.50;;
25509;SDS011;13413;52.336;21.200;2023-02-21T18:05:19;46.90;;;21.30;;
25509;SDS011;13413;52.336;21.200;2023-02-21T18:08:13;50.40;;;20.40;;
25509;SDS011;13413;52.336;21.200;2023-02-21T18:11:09;45.70;;;16.70;;
25509;SDS011;13413;52.336;21.200;2023-02-21T18:14:04;46.50;;;19.80;;
25509;SDS011;13413;52.336;21.200;2023-02-21T18:16:58;47.80;;;22.00;;
25509;SDS011;13413;52.336;21.200;2023-02-21T18:19:51;43.70;;;16.60;;
25509;SDS011;13413;52.336;21.200;2023-02-21T18:25:40;56.90;;;22.40;;
25509;SDS011;13413;52.336;21.200;2023-02-21T18:28:34;35.60;;;13.90;;
25509;SDS011;13413;52.336;21.200;2023-02-21T18:31:28;47.80;;;16.90;;
25509;SDS011;13413;52.336;21.200;2023-02-21T18:34:22;35.40;;;13.10;;
25509;SDS011;13413;52.336;21.200;2023-02-21T18:37:17;46.90;;;18.20;;
25509;SDS011;13413;52.336;21.200;2023-02-21T18:40:11;36.20;;;13.40;;
25509;SDS011;13413;52.336;21.200;2023-02-21T18:43:06;43.20;;;14.20;;
25509;SDS011;13413;52.336;21.200;2023-02-21T18:46:08;27.40;;;9.50;;
25509;SDS011;13413;52.336;21.200;2023-02-21T18:49:04;30.70;;;9.60;;
25509;SDS011;13413;52.336;21.200;2023-02-21T18:51:58;45.40;;;14.90;;
25509;SDS011;13413;52.336;21.200;2023-02-21T18:57:46;38.80;;;13.40;;
25509;SDS011;13413;52.336;21.200;2023-02-21T19:00:40;32.30;;;9.20;;
25509;SDS011;13413;52.336;21.200;2023-02-21T19:03:34;28.80;;;9.80;;
25509;SDS011;13413;52.336;21.200;2023-02-21T19:06:28;39.60;;;16.30;;
25509;SDS011;13413;52.336;21.200;2023-02-21T19:09:22;57.00;;;18.10;;
25509;SDS011;13413;52.336;21.200;2023-02-21T19:12:17;27.10;;;12.30;;
25509;SDS011;13413;52.336;21.200;2023-02-21T19:15:11;47.50;;;16.80;;
25509;SDS011;13413;52.336;21.200;2023-02-21T19:18:06;54.30;;;21.20;;
25509;SDS011;13413;52.336;21.200;2023-02-21T19:21:00;48.30;;;17.80;;
25509;SDS011;13413;52.336;21.200;2023-02-21T19:23:54;46.70;;;18.60;;
25509;SDS011;13413;52.336;21.200;2023-02-21T19:27:08;41.40;;;14.20;;